Time;durP1;ratioP1;P1;durP2;ratioP2;P2;SDS_P1;SDS_P2;PMS_P1;PMS_P2;Temp;Humidity;BMP_temperature;BMP_pressure;BME280_temperature;BME280_humidity;BME280_pressure;Samples;Min_cycle;Max_cycle;Signal;HPM_P1;HPM_P2
2022/09/23 00:01:21;;;;;;;33.63;15.30;;;;;;;9.29;87.86;94606.21;1601871;88;21095;-55
2022/09/23 00:03:50;;;;;;;29.30;15.28;;;;;;;9.30;87.92;94610.48;1575493;90;21638;-56
2022/09/23 00:06:20;;;;;;;22.07;11.53;;;;;;;9.32;88.16;94610.81;1617404;86;21013;-56
2022/09/23 00:08:48;;;;;;;12.93;8.43;;;;;;;9.33;88.04;94609.01;1614118;87;21928;-56
2022/09/23 00:11:20;;;;;;;16.93;8.88;;;;;;;9.30;87.74;94602.25;1624048;86;21708;-57
2022/09/23 00:13:50;;;;;;;16.45;10.00;;;;;;;9.26;87.56;94605.72;1588135;87;21132;-57
2022/09/23 00:16:22;;;;;;;13.38;9.28;;;;;;;9.23;87.70;94607.98;1602249;87;21042;-57
2022/09/23 00:18:50;;;;;;;18.90;10.48;;;;;;;9.23;88.28;94601.12;1601297;87;21039;-56
2022/09/23 00:21:19;;;;;;;19.60;11.08;;;;;;;9.28;88.35;94599.19;1621095;87;21265;-54
2022/09/23 00:23:47;;;;;;;13.08;8.85;;;;;;;9.29;88.19;94597.97;1603245;87;20989;-56
2022/09/23 00:26:19;;;;;;;11.48;8.15;;;;;;;9.28;87.81;94595.82;1613590;87;21018;-57
2022/09/23 00:28:49;;;;;;;12.23;6.65;;;;;;;9.21;87.39;94603.55;1631999;87;20998;-57
2022/09/23 00:31:20;;;;;;;11.03;7.42;;;;;;;9.09;87.10;94594.72;1623199;87;21073;-55
2022/09/23 00:33:49;;;;;;;11.90;7.30;;;;;;;9.00;87.16;94598.13;1625787;87;21258;-56
2022/09/23 00:36:16;;;;;;;9.68;7.20;;;;;;;8.96;87.60;94596.10;1613139;87;21088;-56
2022/09/23 00:38:44;;;;;;;10.40;7.25;;;;;;;8.95;87.72;94595.16;1601673;87;21043;-55
2022/09/23 00:41:14;;;;;;;14.05;8.45;;;;;;;8.90;87.46;94602.58;1619221;87;21048;-55
2022/09/23 00:43:50;;;;;;;12.00;8.15;;;;;;;8.84;87.57;94602.94;1609426;87;20995;-56
2022/09/23 00:46:24;;;;;;;13.03;7.78;;;;;;;8.82;88.09;94599.88;1624026;86;21093;-56
2022/09/23 00:49:00;;;;;;;7.20;5.40;;;;;;;8.85;88.43;94598.23;1618948;87;21047;-57
2022/09/23 00:51:35;;;;;;;12.88;7.17;;;;;;;8.89;88.75;94602.41;1593674;87;21613;-56
2022/09/23 00:54:05;;;;;;;10.32;6.65;;;;;;;8.95;88.79;94597.91;1608469;87;21009;-56
2022/09/23 00:56:33;;;;;;;10.70;6.25;;;;;;;9.03;88.89;94592.38;1604814;87;21124;-56
2022/09/23 00:59:01;;;;;;;9.90;5.75;;;;;;;9.09;88.27;94586.48;1611653;88;21597;-56
2022/09/23 01:01:29;;;;;;;21.45;10.35;;;;;;;9.09;87.68;94583.73;1628513;87;20967;-56
2022/09/23 01:03:57;;;;;;;18.30;9.23;;;;;;;9.06;87.61;94587.37;1616256;87;21006;-56
2022/09/23 01:06:25;;;;;;;19.85;7.70;;;;;;;9.01;87.60;94581.05;1602850;87;20998;-56
2022/09/23 01:08:54;;;;;;;9.88;6.20;;;;;;;8.95;87.77;94584.19;1605381;88;21002;-56
2022/09/23 01:11:42;;;;;;;5.45;4.90;;;;;;;8.87;87.83;94589.74;1609201;87;21143;-56
2022/09/23 01:14:33;;;;;;;3.60;3.40;;;;;;;8.85;88.37;94589.41;1617221;87;21064;-56
2022/09/23 01:17:38;;;;;;;6.90;3.98;;;;;;;8.89;88.37;94587.33;1608773;87;21029;-56
2022/09/23 01:20:41;;;;;;;8.50;6.33;;;;;;;8.93;88.18;94587.38;1612618;87;21092;-56
2022/09/23 01:24:01;;;;;;;12.68;7.80;;;;;;;8.88;87.70;94595.98;1627860;87;21471;-56
2022/09/23 01:26:40;;;;;;;12.33;7.00;;;;;;;8.79;87.45;94593.89;1620700;87;21291;-56
2022/09/23 01:29:15;;;;;;;11.57;7.15;;;;;;;8.74;87.67;94594.45;1613747;87;20975;-55
2022/09/23 01:32:06;;;;;;;10.48;6.92;;;;;;;8.73;87.60;94599.77;1602116;87;20985;-55
2022/09/23 01:34:41;;;;;;;5.45;4.92;;;;;;;8.75;87.56;94604.22;1598107;87;21033;-56
2022/09/23 01:37:15;;;;;;;5.28;4.62;;;;;;;8.72;87.29;94591.38;1615561;87;21033;-57
2022/09/23 01:39:48;;;;;;;6.25;5.25;;;;;;;8.71;87.28;94598.08;1621904;87;21284;-57
2022/09/23 01:42:21;;;;;;;4.87;4.47;;;;;;;8.69;86.82;94590.89;1620754;87;21002;-56
2022/09/23 01:44:51;;;;;;;;;;;;;;;8.63;86.36;94600.85;1581621;90;21751;-57
2022/09/23 01:47:26;;;;;;;9.03;4.65;;;;;;;8.55;86.50;94589.95;1575739;89;20158;-56
2022/09/23 01:50:02;;;;;;;11.35;4.00;;;;;;;8.52;86.58;94592.78;1613871;87;21093;-55
2022/09/23 01:52:39;;;;;;;8.73;5.90;;;;;;;8.51;86.67;94592.03;1613914;87;21371;-56
2022/09/23 01:55:12;;;;;;;7.92;4.25;;;;;;;8.53;86.74;94598.44;1615514;87;21082;-55
2022/09/23 01:57:46;;;;;;;4.95;4.55;;;;;;;8.51;86.77;94594.77;1618619;86;21544;-56
2022/09/23 02:00:17;;;;;;;6.40;4.25;;;;;;;8.51;86.64;94595.36;1624849;87;21001;-57
2022/09/23 02:03:16;;;;;;;4.20;3.90;;;;;;;8.51;86.67;94593.41;1627728;87;21030;-55
2022/09/23 02:06:00;;;;;;;4.72;3.67;;;;;;;8.51;86.80;94594.77;1615038;87;21370;-55
2022/09/23 02:08:39;;;;;;;4.22;3.75;;;;;;;8.55;87.21;94592.69;1608545;87;21051;-55
2022/09/23 02:11:09;;;;;;;6.25;4.90;;;;;;;8.60;87.06;94593.51;1610712;87;21178;-56
2022/09/23 02:13:51;;;;;;;11.70;6.78;;;;;;;8.62;86.32;94600.69;1609372;87;21061;-54
2022/09/23 02:16:28;;;;;;;6.83;5.70;;;;;;;8.57;86.34;94594.39;1617574;87;20985;-56
2022/09/23 02:19:09;;;;;;;5.83;4.90;;;;;;;8.53;86.33;94595.11;1616820;87;21673;-55
2022/09/23 02:21:42;;;;;;;10.10;5.30;;;;;;;8.44;86.07;94599.08;1618691;87;21006;-56
2022/09/23 02:24:26;;;;;;;6.83;5.03;;;;;;;8.29;86.24;94593.09;1612145;87;21000;-57
2022/09/23 02:27:00;;;;;;;4.90;4.50;;;;;;;8.20;86.62;94586.88;1623502;87;21030;-56
2022/09/23 02:29:53;;;;;;;6.87;3.90;;;;;;;8.13;86.93;94589.02;1622481;87;21124;-56
2022/09/23 02:32:31;;;;;;;5.83;5.25;;;;;;;8.12;87.28;94588.27;1592978;88;21271;-55
2022/09/23 02:35:07;;;;;;;10.75;5.00;;;;;;;8.16;87.55;94600.47;1614322;87;20990;-57
2022/09/23 02:37:59;;;;;;;7.83;5.92;;;;;;;8.21;88.03;94608.21;1596307;89;21073;-56
2022/09/23 02:40:41;;;;;;;8.50;6.28;;;;;;;8.26;88.04;94607.05;1623877;87;21055;-56
2022/09/23 02:43:34;;;;;;;8.65;5.70;;;;;;;8.30;88.00;94600.10;1624043;87;20989;-56
2022/09/23 02:45:58;;;;;;;7.40;4.87;;;;;;;8.35;87.83;94604.45;1629318;87;21259;-56
2022/09/23 02:48:37;;;;;;;6.83;5.83;;;;;;;8.39;87.67;94605.11;1615428;86;21021;-56
2022/09/23 02:51:05;;;;;;;4.28;3.90;;;;;;;8.37;87.44;94600.67;1617378;87;21141;-55
2022/09/23 02:53:32;;;;;;;5.58;3.60;;;;;;;8.39;87.66;94604.33;1635407;87;21081;-56
2022/09/23 02:56:02;;;;;;;5.37;3.90;;;;;;;8.34;87.18;94602.92;1608489;86;21104;-56
2022/09/23 02:58:29;;;;;;;6.70;3.92;;;;;;;8.26;86.99;94601.56;1594785;87;21322;-56
2022/09/23 03:01:36;;;;;;;4.20;3.85;;;;;;;8.21;87.02;94609.58;1622416;87;21142;-55
2022/09/23 03:04:13;;;;;;;4.83;3.58;;;;;;;8.17;87.26;94609.64;1615006;87;21588;-56
2022/09/23 03:06:58;;;;;;;12.20;5.80;;;;;;;8.17;87.27;94609.64;1602535;87;21596;-55
2022/09/23 03:09:31;;;;;;;11.45;7.12;;;;;;;8.18;87.74;94602.20;1616160;88;21121;-55
2022/09/23 03:12:10;;;;;;;8.63;6.83;;;;;;;8.21;87.76;94604.85;1619445;87;21253;-55
2022/09/23 03:15:11;;;;;;;8.70;6.30;;;;;;;8.23;87.56;94609.30;1616118;87;21094;-56
2022/09/23 03:17:47;;;;;;;5.62;5.12;;;;;;;8.24;87.45;94612.20;1627750;87;21043;-56
2022/09/23 03:20:41;;;;;;;6.40;5.28;;;;;;;8.25;87.37;94609.63;1598637;87;21120;-56
2022/09/23 03:23:10;;;;;;;5.30;4.80;;;;;;;8.22;87.23;94613.86;1613734;87;21102;-55
2022/09/23 03:25:42;;;;;;;9.93;4.58;;;;;;;8.21;87.30;94614.45;1625743;87;21799;-56
2022/09/23 03:28:09;;;;;;;5.08;4.58;;;;;;;8.17;87.10;94612.38;1615869;87;21042;-57
2022/09/23 03:30:37;;;;;;;4.62;4.22;;;;;;;8.14;87.15;94606.99;1618703;87;21072;-55
2022/09/23 03:33:07;;;;;;;4.37;4.05;;;;;;;8.12;87.28;94607.45;1608188;88;21160;-56
2022/09/23 03:36:48;;;;;;;5.12;4.62;;;;;;;8.12;87.58;94610.19;1606341;87;21056;-56
2022/09/23 03:38:14;;;;;;;4.25;3.85;;;;;;;8.13;87.54;94608.20;1626244;88;21439;-56
2022/09/23 03:40:46;;;;;;;3.92;3.62;;;;;;;8.10;87.31;94609.83;1621753;87;21023;-57
2022/09/23 03:43:12;;;;;;;6.08;3.65;;;;;;;8.08;87.48;94608.12;1612072;88;21047;-56
2022/09/23 03:45:41;;;;;;;6.45;4.10;;;;;;;8.08;87.35;94610.11;1603877;87;21465;-57
2022/09/23 03:48:08;;;;;;;4.85;4.47;;;;;;;8.08;87.44;94608.73;1602192;88;21016;-58
2022/09/23 03:50:38;;;;;;;6.75;6.08;;;;;;;8.10;87.49;94611.20;1618681;87;21514;-56
2022/09/23 03:53:06;;;;;;;9.43;6.08;;;;;;;8.11;87.28;94609.23;1626125;87;20939;-57
2022/09/23 03:55:38;;;;;;;6.47;5.87;;;;;;;8.13;87.35;94611.72;1609588;87;21490;-57
2022/09/23 03:58:06;;;;;;;6.70;5.97;;;;;;;8.16;87.38;94605.95;1614517;87;21034;-56
2022/09/23 04:00:36;;;;;;;7.65;4.65;;;;;;;8.17;87.22;94605.53;1618911;87;21109;-57
2022/09/23 04:03:04;;;;;;;4.72;4.30;;;;;;;8.22;87.43;94607.76;1619755;86;21133;-55
2022/09/23 04:05:32;;;;;;;4.28;3.98;;;;;;;8.25;87.24;94607.50;1619598;87;21033;-57
2022/09/23 04:08:02;;;;;;;3.98;3.67;;;;;;;8.22;87.16;94607.76;1619726;87;21586;-57
2022/09/23 04:10:30;;;;;;;4.37;3.98;;;;;;;8.24;87.14;94606.72;1602571;87;21155;-57
2022/09/23 04:13:00;;;;;;;4.30;3.90;;;;;;;8.23;86.88;94618.13;1616570;87;20990;-57
2022/09/23 04:15:28;;;;;;;7.35;6.62;;;;;;;8.18;86.64;94618.64;1605931;87;21596;-56
2022/09/23 04:17:57;;;;;;;12.03;7.83;;;;;;;8.07;86.75;94618.91;1623534;87;21141;-56
2022/09/23 04:20:27;;;;;;;9.55;8.55;;;;;;;7.96;87.08;94622.56;1602351;87;21589;-57
2022/09/23 04:22:54;;;;;;;14.43;10.45;;;;;;;7.89;87.71;94622.74;1604235;87;21082;-57
2022/09/23 04:25:23;;;;;;;10.63;8.60;;;;;;;7.88;88.10;94621.20;1617964;87;21108;-57
2022/09/23 04:27:51;;;;;;;10.68;8.68;;;;;;;7.86;88.35;94610.53;1604274;86;21549;-57
2022/09/23 04:30:19;;;;;;;11.93;7.70;;;;;;;7.85;88.55;94615.23;1581698;87;21478;-58
2022/09/23 04:32:51;;;;;;;10.50;8.80;;;;;;;7.90;89.08;94619.42;1620681;87;20982;-57
2022/09/23 04:35:19;;;;;;;13.90;10.15;;;;;;;7.93;88.98;94617.17;1612907;86;21054;-59
2022/09/23 04:37:51;;;;;;;10.25;8.85;;;;;;;7.91;88.96;94621.70;1585468;88;21029;-58
2022/09/23 04:40:20;;;;;;;11.03;8.68;;;;;;;7.92;89.21;94616.39;1612920;87;21214;-60
2022/09/23 04:42:49;;;;;;;8.83;8.00;;;;;;;8.01;89.58;94614.40;1623328;87;20979;-58
2022/09/23 04:45:18;;;;;;;8.73;7.62;;;;;;;8.08;89.26;94620.45;1616214;87;21098;-60
2022/09/23 04:47:46;;;;;;;11.63;7.85;;;;;;;8.12;89.00;94618.41;1611530;87;21155;-58
2022/09/23 04:50:16;;;;;;;8.38;7.30;;;;;;;8.14;89.10;94613.84;1616086;86;21180;-59
2022/09/23 04:52:45;;;;;;;7.70;7.03;;;;;;;8.20;89.18;94613.50;1619499;87;21499;-60
2022/09/23 04:55:13;;;;;;;8.15;6.37;;;;;;;8.28;89.15;94622.45;1615590;86;21581;-59
2022/09/23 04:57:43;;;;;;;6.40;5.65;;;;;;;8.36;88.76;94621.06;1612406;87;21069;-59
2022/09/23 05:00:14;;;;;;;10.72;7.37;;;;;;;8.40;88.55;94627.20;1611765;87;21220;-61
2022/09/23 05:02:48;;;;;;;8.43;7.15;;;;;;;8.41;88.49;94630.11;1624313;87;21178;-60
2022/09/23 05:05:23;;;;;;;32.40;18.12;;;;;;;8.48;88.96;94621.70;1617333;87;21240;-60
2022/09/23 05:07:47;;;;;;;31.17;19.62;;;;;;;8.58;88.67;94627.45;1620670;87;21087;-59
2022/09/23 05:10:15;;;;;;;15.08;9.73;;;;;;;8.66;88.42;94628.02;1621129;87;21527;-60
2022/09/23 05:12:42;;;;;;;21.87;17.17;;;;;;;8.74;87.85;94620.51;1621668;87;21045;-60
2022/09/23 05:15:14;;;;;;;15.45;11.43;;;;;;;8.74;87.33;94622.47;1618410;87;21156;-58
2022/09/23 05:17:41;;;;;;;16.57;9.63;;;;;;;8.77;87.05;94619.63;1619942;85;21780;-58
2022/09/23 05:20:10;;;;;;;14.45;9.28;;;;;;;8.80;86.77;94624.23;1637354;85;21050;-58
2022/09/23 05:22:38;;;;;;;12.03;8.90;;;;;;;8.85;86.30;94620.18;1646678;85;21641;-59
2022/09/23 05:25:08;;;;;;;12.98;8.93;;;;;;;8.87;86.01;94619.13;1649930;86;21483;-59
2022/09/23 05:27:38;;;;;;;10.95;8.90;;;;;;;8.87;85.89;94612.27;1639128;86;21590;-58
2022/09/23 05:30:08;;;;;;;10.38;8.48;;;;;;;8.94;86.07;94617.73;1652818;85;21144;-61
2022/09/23 05:32:38;;;;;;;19.40;12.03;;;;;;;9.01;85.76;94616.12;1645720;86;21018;-62
2022/09/23 05:35:06;;;;;;;11.63;9.75;;;;;;;9.08;85.70;94621.38;1658476;85;21042;-62
2022/09/23 05:37:35;;;;;;;16.07;9.95;;;;;;;9.15;85.61;94618.42;1658083;85;21081;-61
2022/09/23 05:40:04;;;;;;;15.80;8.70;;;;;;;9.22;85.50;94612.70;1649137;86;21027;-63
2022/09/23 05:42:33;;;;;;;12.68;9.20;;;;;;;9.29;84.96;94616.57;1638331;85;21603;-59
2022/09/23 05:45:01;;;;;;;14.78;9.15;;;;;;;9.31;84.62;94616.14;1632629;85;21092;-62
2022/09/23 05:47:29;;;;;;;13.88;10.48;;;;;;;9.36;84.41;94614.98;1633541;85;21111;-61
2022/09/23 05:49:57;;;;;;;12.13;10.03;;;;;;;9.43;84.42;94616.11;1630978;85;21645;-62
2022/09/23 05:52:25;;;;;;;17.32;8.75;;;;;;;9.47;84.31;94622.87;1634070;85;21545;-62
2022/09/23 05:54:53;;;;;;;11.68;7.20;;;;;;;9.43;84.28;94616.73;1642422;85;21143;-60
2022/09/23 05:57:22;;;;;;;12.65;7.67;;;;;;;9.43;84.22;94611.24;1649128;85;21064;-58
2022/09/23 05:59:49;;;;;;;7.90;7.10;;;;;;;9.43;84.24;94614.73;1643843;86;21101;-63
2022/09/23 06:02:17;;;;;;;10.40;6.95;;;;;;;9.48;84.34;94621.66;1626369;86;21065;-60
2022/09/23 06:04:45;;;;;;;10.30;8.43;;;;;;;9.49;84.25;94614.95;1625532;85;21041;-59
2022/09/23 06:07:13;;;;;;;18.67;10.23;;;;;;;9.51;84.40;94618.80;1638418;85;21143;-60
2022/09/23 06:09:41;;;;;;;25.10;11.10;;;;;;;9.61;84.56;94616.28;1633198;85;21238;-62
2022/09/23 06:12:12;;;;;;;12.75;8.63;;;;;;;9.74;84.25;94614.88;1626762;84;21048;-63
2022/09/23 06:14:41;;;;;;;9.03;7.37;;;;;;;9.88;83.95;94622.63;1639299;84;21554;-62
2022/09/23 06:17:10;;;;;;;11.20;7.60;;;;;;;10.00;83.22;94616.33;1644331;86;21264;-63
2022/09/23 06:19:37;;;;;;;9.68;7.80;;;;;;;10.08;82.37;94608.02;1650770;84;21138;-60
2022/09/23 06:22:04;;;;;;;16.40;9.90;;;;;;;10.10;82.31;94611.86;1648100;85;21027;-60
2022/09/23 06:24:34;;;;;;;9.68;7.80;;;;;;;10.14;82.14;94613.87;1644494;84;21144;-61
2022/09/23 06:27:03;;;;;;;8.83;6.70;;;;;;;10.20;81.96;94611.32;1633717;85;21150;-59
2022/09/23 06:29:32;;;;;;;8.68;6.03;;;;;;;10.30;81.55;94615.65;1649831;85;21019;-58
2022/09/23 06:32:00;;;;;;;10.60;6.92;;;;;;;10.33;81.07;94614.78;1607921;85;21168;-57
2022/09/23 06:34:28;;;;;;;9.23;7.33;;;;;;;10.39;80.77;94612.97;1582599;89;21555;-56
2022/09/23 06:36:57;;;;;;;10.80;6.42;;;;;;;10.50;80.74;94617.48;1632978;86;21078;-58
2022/09/23 06:39:25;;;;;;;9.05;7.47;;;;;;;10.67;80.58;94613.28;1639402;85;21580;-59
2022/09/23 06:41:53;;;;;;;9.60;7.97;;;;;;;10.86;79.64;94613.72;1625266;85;20992;-57
2022/09/23 06:44:21;;;;;;;16.62;7.80;;;;;;;11.01;78.39;94616.67;1637442;84;21939;-59
2022/09/23 06:46:50;;;;;;;6.90;5.65;;;;;;;11.09;77.34;94617.32;1635113;84;21169;-62
2022/09/23 06:49:20;;;;;;;11.80;9.65;;;;;;;11.16;75.97;94616.28;1632743;85;21043;-58
2022/09/23 06:51:48;;;;;;;16.60;6.30;;;;;;;11.19;75.14;94618.13;1641077;84;21534;-63
2022/09/23 06:54:16;;;;;;;6.87;4.03;;;;;;;11.19;74.61;94623.00;1615964;86;21120;-62
2022/09/23 06:56:47;;;;;;;7.67;4.72;;;;;;;11.25;74.08;94618.45;1651542;84;21998;-62
2022/09/23 06:59:16;;;;;;;11.73;9.77;;;;;;;11.23;73.80;94616.77;1642313;85;21095;-61
2022/09/23 07:01:46;;;;;;;14.90;13.35;;;;;;;11.26;73.56;94612.32;1638249;85;21661;-62
2022/09/23 07:04:15;;;;;;;6.03;5.42;;;;;;;11.35;73.13;94618.63;1656613;85;21121;-61
2022/09/23 07:06:45;;;;;;;4.03;3.60;;;;;;;11.45;72.38;94618.81;1621688;85;21896;-58
2022/09/23 07:09:13;;;;;;;7.12;5.15;;;;;;;11.50;72.36;94620.96;1645381;85;22133;-61
2022/09/23 07:11:42;;;;;;;4.00;3.70;;;;;;;11.54;71.77;94620.83;1633115;85;21113;-61
2022/09/23 07:14:12;;;;;;;3.87;3.00;;;;;;;11.56;70.85;94615.02;1611489;86;21609;-60
2022/09/23 07:16:41;;;;;;;5.03;3.27;;;;;;;11.55;70.76;94610.71;1615707;85;21101;-63
2022/09/23 07:19:11;;;;;;;4.65;3.70;;;;;;;11.59;70.64;94622.41;1618928;85;21060;-62
2022/09/23 07:21:38;;;;;;;4.50;3.90;;;;;;;11.62;70.37;94615.98;1647890;85;21606;-61
2022/09/23 07:24:06;;;;;;;5.08;4.58;;;;;;;11.68;69.93;94618.90;1628188;85;21042;-60
2022/09/23 07:26:35;;;;;;;9.65;5.33;;;;;;;11.73;69.60;94616.28;1567458;87;21111;-60
2022/09/23 07:29:03;;;;;;;5.45;4.55;;;;;;;11.74;68.85;94609.55;1642550;85;21126;-60
2022/09/23 07:31:33;;;;;;;9.68;6.97;;;;;;;11.73;68.59;94614.91;1656897;84;21593;-62
2022/09/23 07:34:01;;;;;;;5.67;5.05;;;;;;;11.78;68.81;94612.94;1645208;85;21253;-63
2022/09/23 07:36:36;;;;;;;6.75;4.80;;;;;;;11.93;68.61;94613.85;1640512;85;21134;-56
2022/09/23 07:39:03;;;;;;;4.92;3.25;;;;;;;12.13;67.34;94618.33;1637834;85;21093;-61
2022/09/23 07:41:31;;;;;;;4.92;4.20;;;;;;;12.21;66.63;94612.64;1612746;87;21114;-63
2022/09/23 07:44:00;;;;;;;9.95;8.15;;;;;;;12.25;66.84;94613.25;1646014;84;21083;-65
2022/09/23 07:46:30;;;;;;;6.97;4.03;;;;;;;12.29;67.35;94613.10;1641645;84;21284;-59
2022/09/23 07:48:58;;;;;;;4.20;3.80;;;;;;;12.37;66.30;94608.19;1660481;85;21079;-61
2022/09/23 07:51:31;;;;;;;4.75;4.22;;;;;;;12.42;65.03;94608.94;1635037;84;21084;-60
2022/09/23 07:53:59;;;;;;;7.40;6.60;;;;;;;12.40;64.30;94609.23;1645393;84;21257;-58
2022/09/23 07:56:28;;;;;;;17.80;10.13;;;;;;;12.33;64.16;94610.34;1660446;84;21130;-62
2022/09/23 07:59:01;;;;;;;15.78;10.03;;;;;;;12.27;64.03;94601.14;1633396;85;21404;-60
2022/09/23 08:01:33;;;;;;;;;;;;;;;12.16;63.76;94603.61;1623488;86;21606;-62
2022/09/23 08:04:04;;;;;;;13.15;5.45;;;;;;;12.06;64.20;94602.07;1637069;84;20163;-58
2022/09/23 08:06:33;;;;;;;5.05;4.12;;;;;;;11.95;65.01;94610.05;1633272;85;21065;-57
2022/09/23 08:09:01;;;;;;;14.78;3.83;;;;;;;11.93;65.00;94605.58;1630685;86;21007;-60
2022/09/23 08:11:30;;;;;;;3.50;3.10;;;;;;;11.89;65.18;94606.34;1599712;89;21228;-60
2022/09/23 08:14:00;;;;;;;49.45;27.58;;;;;;;11.84;64.69;94605.59;1610378;86;21026;-58
2022/09/23 08:16:28;;;;;;;10.90;6.83;;;;;;;11.82;64.99;94598.99;1638159;85;21059;-59
2022/09/23 08:18:58;;;;;;;7.15;5.22;;;;;;;11.80;64.82;94607.73;1644417;84;22330;-61
2022/09/23 08:21:25;;;;;;;10.48;6.58;;;;;;;11.76;65.06;94604.97;1615932;85;21116;-59
2022/09/23 08:23:55;;;;;;;12.45;9.18;;;;;;;11.74;65.05;94608.80;1625047;85;21138;-59
2022/09/23 08:26:24;;;;;;;11.90;6.10;;;;;;;11.69;65.14;94599.77;1642959;85;21065;-62
2022/09/23 08:28:55;;;;;;;5.67;4.58;;;;;;;11.62;65.46;94605.55;1647827;84;21028;-59
2022/09/23 08:31:23;;;;;;;9.05;4.67;;;;;;;11.58;65.39;94609.85;1639629;86;21072;-58
2022/09/23 08:33:55;;;;;;;6.87;4.25;;;;;;;11.51;65.34;94603.20;1587268;88;21148;-61
2022/09/23 08:36:23;;;;;;;5.67;4.55;;;;;;;11.48;65.37;94604.72;1612580;86;22271;-60
2022/09/23 08:38:51;;;;;;;10.25;3.67;;;;;;;11.46;65.50;94600.28;1639146;86;21051;-61
2022/09/23 08:41:57;;;;;;;21.68;18.12;;;;;;;11.43;65.67;94600.60;1636774;85;21626;-60
2022/09/23 08:44:45;;;;;;;6.78;6.08;;;;;;;11.37;66.04;94607.91;1578662;89;21137;-62
2022/09/23 08:47:26;;;;;;;9.38;8.35;;;;;;;11.31;66.71;94595.22;1572087;90;21233;-59
2022/09/23 08:50:18;;;;;;;7.70;5.03;;;;;;;11.32;66.79;94597.50;1634591;84;21794;-58
2022/09/23 08:53:04;;;;;;;9.88;6.53;;;;;;;11.36;66.68;94597.37;1645354;84;21571;-62
2022/09/23 08:55:36;;;;;;;11.15;5.80;;;;;;;11.41;66.93;94601.67;1603597;86;21095;-61
2022/09/23 08:58:43;;;;;;;7.53;5.20;;;;;;;11.50;66.97;94600.30;1569172;88;21134;-62
2022/09/23 09:01:38;;;;;;;11.40;7.72;;;;;;;11.54;66.59;94605.05;1638463;85;21105;-62
2022/09/23 09:04:20;;;;;;;7.40;5.05;;;;;;;11.53;66.55;94606.27;1629997;84;21265;-58
2022/09/23 09:07:02;;;;;;;11.83;4.87;;;;;;;11.54;66.55;94598.16;1639969;85;21041;-58
2022/09/23 09:09:32;;;;;;;;;;;;;;;11.61;66.45;94593.78;1632218;85;21016;-58
2022/09/23 09:12:08;;;;;;;8.90;5.20;;;;;;;11.67;65.58;94600.20;1630125;84;20277;-60
2022/09/23 09:15:03;;;;;;;9.68;8.68;;;;;;;11.66;65.94;94598.67;1628703;84;21452;-61
2022/09/23 09:18:00;;;;;;;12.93;4.40;;;;;;;11.68;65.79;94589.34;1582922;88;21296;-58
2022/09/23 09:20:47;;;;;;;7.42;4.70;;;;;;;11.75;65.40;94591.78;1634248;85;21228;-61
2022/09/23 09:23:28;;;;;;;6.53;3.62;;;;;;;11.83;65.38;94579.25;1631205;85;21551;-60
2022/09/23 09:25:58;;;;;;;4.33;3.10;;;;;;;11.94;64.21;94584.31;1577702;88;21038;-61
2022/09/23 09:28:34;;;;;;;4.75;3.20;;;;;;;12.01;63.13;94579.85;1602920;87;21105;-59
2022/09/23 09:31:21;;;;;;;8.10;3.85;;;;;;;12.08;62.40;94578.94;1635701;84;21247;-56
2022/09/23 09:34:26;;;;;;;5.53;4.28;;;;;;;12.21;62.56;94593.34;1596513;87;21488;-60
2022/09/23 09:37:08;;;;;;;4.78;3.95;;;;;;;12.40;62.48;94579.67;1638086;84;21483;-60
2022/09/23 09:39:36;;;;;;;4.35;3.15;;;;;;;12.66;61.28;94579.45;1646587;84;21082;-59
2022/09/23 09:42:05;;;;;;;4.42;3.10;;;;;;;12.83;59.79;94575.89;1640594;85;21052;-58
2022/09/23 09:44:54;;;;;;;5.20;4.42;;;;;;;12.97;59.31;94575.86;1638408;86;22490;-62
2022/09/23 09:47:56;;;;;;;6.03;4.40;;;;;;;13.07;59.51;94575.98;1635608;85;21145;-61
2022/09/23 09:50:48;;;;;;;7.40;6.58;;;;;;;13.22;59.76;94569.91;1645879;84;21035;-59
2022/09/23 09:53:34;;;;;;;10.98;7.37;;;;;;;13.28;60.71;94592.92;1641766;86;20924;-62
2022/09/23 09:56:13;;;;;;;7.40;5.20;;;;;;;13.24;62.39;94584.80;1633537;85;21035;-62
2022/09/23 09:58:52;;;;;;;8.05;7.25;;;;;;;13.18;62.87;94578.98;1622017;85;21246;-60
2022/09/23 10:01:29;;;;;;;8.15;6.83;;;;;;;13.16;64.01;94573.17;1639847;86;21091;-60
2022/09/23 10:04:10;;;;;;;7.80;7.00;;;;;;;13.24;64.43;94563.33;1637258;86;20959;-61
2022/09/23 10:06:38;;;;;;;7.45;5.92;;;;;;;13.40;64.38;94571.20;1618702;84;21550;-63
2022/09/23 10:09:16;;;;;;;4.87;4.37;;;;;;;13.68;65.24;94564.28;1634890;85;21117;-63
2022/09/23 10:11:46;;;;;;;4.75;3.83;;;;;;;13.90;65.27;94564.73;1655379;84;21163;-63
2022/09/23 10:14:18;;;;;;;5.95;5.22;;;;;;;14.19;63.79;94563.46;1658480;85;21599;-60
2022/09/23 10:16:47;;;;;;;3.12;2.83;;;;;;;14.36;61.26;94557.62;1613729;86;21088;-62
2022/09/23 10:19:25;;;;;;;5.60;4.47;;;;;;;14.51;59.34;94548.85;1653001;84;21118;-63
2022/09/23 10:21:58;;;;;;;4.37;3.47;;;;;;;14.87;59.35;94549.84;1620452;85;21010;-65
2022/09/23 10:24:31;;;;;;;4.30;3.15;;;;;;;15.36;57.46;94544.31;1651999;85;21328;-60
2022/09/23 10:27:10;;;;;;;4.97;3.40;;;;;;;15.94;56.22;94541.30;1619340;85;21638;-60
2022/09/23 10:29:47;;;;;;;3.15;2.50;;;;;;;16.26;54.83;94542.19;1647839;85;21552;-64
2022/09/23 10:32:36;;;;;;;10.30;8.70;;;;;;;16.26;52.42;94541.55;1623968;86;21087;-63
2022/09/23 10:35:13;;;;;;;9.30;7.85;;;;;;;16.01;53.21;94538.13;1658745;84;22207;-63
2022/09/23 10:37:53;;;;;;;18.20;16.27;;;;;;;15.73;52.59;94535.62;1647610;85;21219;-59
2022/09/23 10:46:48;;;;;;;12.90;9.83;;;;;;;15.07;52.08;94534.67;1657764;84;21048;-63
2022/09/23 10:49:50;;;;;;;13.48;9.80;;;;;;;14.97;52.25;94534.63;1648027;86;21119;-64
2022/09/23 10:52:46;;;;;;;7.13;4.77;;;;;;;15.14;53.24;94545.34;1625879;86;21153;-61
2022/09/23 10:55:28;;;;;;;3.83;3.10;;;;;;;15.50;51.94;94539.35;1608781;86;21282;-60
2022/09/23 10:58:18;;;;;;;2.33;2.12;;;;;;;15.84;49.52;94539.93;1651568;86;21031;-62
2022/09/23 11:01:25;;;;;;;4.35;3.95;;;;;;;16.21;49.14;94546.42;1653117;85;21058;-64
2022/09/23 11:04:04;;;;;;;4.60;4.20;;;;;;;16.30;49.96;94543.48;1551778;90;21156;-59
2022/09/23 11:06:53;;;;;;;2.15;1.95;;;;;;;16.05;50.30;94547.00;1545617;90;21897;-59
2022/09/23 11:09:31;;;;;;;6.97;3.37;;;;;;;15.80;50.00;94535.22;1595526;87;21248;-58
2022/09/23 11:12:13;;;;;;;4.15;3.70;;;;;;;15.43;52.06;94540.38;1631830;86;22070;-58
2022/09/23 11:14:55;;;;;;;2.85;2.52;;;;;;;15.19;53.01;94536.98;1628279;86;21561;-59
2022/09/23 11:17:53;;;;;;;2.75;2.22;;;;;;;15.03;52.38;94529.93;1642899;85;22201;-60
2022/09/23 11:20:53;;;;;;;4.08;3.55;;;;;;;15.21;53.89;94530.33;1634751;85;21918;-61
2022/09/23 11:23:29;;;;;;;5.30;1.98;;;;;;;15.44;51.38;94523.27;1642816;86;21474;-62
2022/09/23 11:26:27;;;;;;;4.75;2.42;;;;;;;15.54;51.64;94512.17;1608738;87;21074;-58
2022/09/23 11:29:12;;;;;;;5.22;2.27;;;;;;;15.66;52.26;94522.78;1646414;86;21061;-59
2022/09/23 11:31:48;;;;;;;4.15;2.00;;;;;;;15.92;51.30;94521.60;1639835;85;21002;-57
2022/09/23 11:34:55;;;;;;;4.15;3.10;;;;;;;16.22;51.69;94516.64;1641930;85;21749;-63
2022/09/23 11:37:31;;;;;;;3.22;2.30;;;;;;;16.34;50.43;94513.52;1670483;84;21098;-63
2022/09/23 11:40:14;;;;;;;6.05;1.90;;;;;;;16.26;50.78;94510.27;1635176;86;21109;-61
2022/09/23 11:43:07;;;;;;;2.95;2.50;;;;;;;16.09;50.47;94510.08;1641393;84;22229;-61
2022/09/23 11:45:38;;;;;;;5.90;4.10;;;;;;;15.92;50.88;94517.44;1616914;86;21065;-61
2022/09/23 11:48:17;;;;;;;10.20;3.85;;;;;;;15.78;51.56;94512.75;1647848;85;22500;-59
2022/09/23 11:50:56;;;;;;;5.55;3.92;;;;;;;15.83;51.72;94514.83;1597541;86;21597;-61
2022/09/23 11:53:37;;;;;;;13.72;3.83;;;;;;;16.04;51.90;94502.45;1635397;85;21072;-62
2022/09/23 11:56:22;;;;;;;5.67;2.92;;;;;;;16.42;50.49;94500.73;1631515;85;22209;-59
2022/09/23 11:59:01;;;;;;;4.75;2.70;;;;;;;16.92;49.92;94498.52;1655970;84;21125;-60
2022/09/23 12:01:34;;;;;;;4.72;3.17;;;;;;;17.27;47.92;94499.67;1655455;84;21973;-63
2022/09/23 12:04:22;;;;;;;3.65;3.00;;;;;;;17.45;47.84;94495.13;1595541;88;21104;-64
2022/09/23 12:07:10;;;;;;;3.77;2.65;;;;;;;17.66;49.21;94492.33;1599630;88;21126;-63
2022/09/23 12:09:47;;;;;;;4.62;3.77;;;;;;;17.82;47.90;94491.65;1604875;87;21771;-61
2022/09/23 12:12:46;;;;;;;3.83;3.27;;;;;;;17.54;48.09;94492.91;1593780;88;21603;-61
2022/09/23 12:15:51;;;;;;;3.42;2.62;;;;;;;17.11;49.68;94496.89;1626009;85;21288;-63
2022/09/23 12:18:37;;;;;;;6.62;5.17;;;;;;;16.57;50.11;94500.74;1630624;85;20993;-59